Terminal Aerodrome Forecast
Issued by NWS Albuquerque, NM

Home | Current Version | Previous Version | Text Only | Print | Product List | Glossary On
Versions: 1 2 3 4 5 6 7 8 9 10 11 12
000
FTUS45 KABQ 261700
TAFABQ
TAF
KABQ 261739Z 2618/2718 VRB05KT P6SM FEW080
     FM262100 33010KT P6SM SCT090
     FM262300 35012KT P6SM SCT100
     FM270400 05010KT P6SM BKN140
     FM271200 08007KT P6SM BKN150=

USA.gov is the U.S. government's official web portal to all federal, state and local government web resources and services.